sensor_id;sensor_type;location;lat;lon;timestamp;P1;durP1;ratioP1;P2;durP2;ratioP2
63943;SDS011;50121;51.218;7.664;2022-08-19T00:01:17;17.60;;;15.57;;
63943;SDS011;50121;51.218;7.664;2022-08-19T00:03:45;21.45;;;16.83;;
63943;SDS011;50121;51.218;7.664;2022-08-19T00:06:13;18.08;;;16.17;;
63943;SDS011;50121;51.218;7.664;2022-08-19T00:08:41;22.23;;;16.95;;
63943;SDS011;50121;51.218;7.664;2022-08-19T00:11:29;22.45;;;17.48;;
63943;SDS011;50121;51.218;7.664;2022-08-19T00:13:57;20.40;;;17.00;;
63943;SDS011;50121;51.218;7.664;2022-08-19T00:16:25;24.27;;;17.23;;
63943;SDS011;50121;51.218;7.664;2022-08-19T00:18:53;24.20;;;17.85;;
63943;SDS011;50121;51.218;7.664;2022-08-19T00:21:24;20.50;;;18.05;;
63943;SDS011;50121;51.218;7.664;2022-08-19T00:23:53;21.48;;;16.88;;
63943;SDS011;50121;51.218;7.664;2022-08-19T00:26:21;22.83;;;17.90;;
63943;SDS011;50121;51.218;7.664;2022-08-19T00:28:48;18.33;;;15.93;;
63943;SDS011;50121;51.218;7.664;2022-08-19T00:31:17;17.80;;;15.95;;
63943;SDS011;50121;51.218;7.664;2022-08-19T00:33:44;17.65;;;15.82;;
63943;SDS011;50121;51.218;7.664;2022-08-19T00:36:12;23.58;;;17.55;;
63943;SDS011;50121;51.218;7.664;2022-08-19T00:38:39;19.75;;;15.93;;
63943;SDS011;50121;51.218;7.664;2022-08-19T00:41:12;20.17;;;14.80;;
63943;SDS011;50121;51.218;7.664;2022-08-19T00:43:41;18.88;;;14.77;;
63943;SDS011;50121;51.218;7.664;2022-08-19T00:46:08;17.85;;;15.82;;
63943;SDS011;50121;51.218;7.664;2022-08-19T00:48:36;18.38;;;15.48;;
63943;SDS011;50121;51.218;7.664;2022-08-19T00:51:04;19.73;;;16.30;;
63943;SDS011;50121;51.218;7.664;2022-08-19T00:53:35;19.48;;;15.23;;
63943;SDS011;50121;51.218;7.664;2022-08-19T00:56:03;19.20;;;15.52;;
63943;SDS011;50121;51.218;7.664;2022-08-19T00:58:33;18.88;;;15.82;;
63943;SDS011;50121;51.218;7.664;2022-08-19T01:01:02;18.92;;;15.30;;
63943;SDS011;50121;51.218;7.664;2022-08-19T01:03:30;19.25;;;14.50;;
63943;SDS011;50121;51.218;7.664;2022-08-19T01:05:57;17.08;;;14.98;;
63943;SDS011;50121;51.218;7.664;2022-08-19T01:08:26;19.08;;;15.27;;
63943;SDS011;50121;51.218;7.664;2022-08-19T01:10:55;20.90;;;15.95;;
63943;SDS011;50121;51.218;7.664;2022-08-19T01:13:24;20.33;;;16.58;;
63943;SDS011;50121;51.218;7.664;2022-08-19T01:15:55;17.40;;;15.18;;
63943;SDS011;50121;51.218;7.664;2022-08-19T01:18:23;18.20;;;15.70;;
63943;SDS011;50121;51.218;7.664;2022-08-19T01:20:53;20.08;;;16.25;;
63943;SDS011;50121;51.218;7.664;2022-08-19T01:23:21;18.65;;;15.50;;
63943;SDS011;50121;51.218;7.664;2022-08-19T01:26:10;18.73;;;14.85;;
63943;SDS011;50121;51.218;7.664;2022-08-19T01:28:38;16.58;;;14.27;;
63943;SDS011;50121;51.218;7.664;2022-08-19T01:31:06;17.88;;;14.40;;
63943;SDS011;50121;51.218;7.664;2022-08-19T01:33:34;17.27;;;14.40;;
63943;SDS011;50121;51.218;7.664;2022-08-19T01:36:14;18.30;;;15.25;;
63943;SDS011;50121;51.218;7.664;2022-08-19T01:38:42;18.48;;;15.77;;
63943;SDS011;50121;51.218;7.664;2022-08-19T01:41:12;16.95;;;15.15;;
63943;SDS011;50121;51.218;7.664;2022-08-19T01:43:40;17.45;;;15.15;;
63943;SDS011;50121;51.218;7.664;2022-08-19T01:46:09;19.25;;;15.25;;
63943;SDS011;50121;51.218;7.664;2022-08-19T01:48:38;18.88;;;15.02;;
63943;SDS011;50121;51.218;7.664;2022-08-19T01:51:06;23.17;;;16.80;;
63943;SDS011;50121;51.218;7.664;2022-08-19T01:53:34;27.08;;;17.55;;
63943;SDS011;50121;51.218;7.664;2022-08-19T01:56:02;25.52;;;17.73;;
63943;SDS011;50121;51.218;7.664;2022-08-19T01:58:41;21.95;;;16.95;;
63943;SDS011;50121;51.218;7.664;2022-08-19T02:01:12;21.90;;;16.65;;
63943;SDS011;50121;51.218;7.664;2022-08-19T02:03:40;21.42;;;17.25;;
63943;SDS011;50121;51.218;7.664;2022-08-19T02:06:08;25.23;;;17.73;;
63943;SDS011;50121;51.218;7.664;2022-08-19T02:08:36;22.90;;;17.98;;
63943;SDS011;50121;51.218;7.664;2022-08-19T02:11:07;23.10;;;16.63;;
63943;SDS011;50121;51.218;7.664;2022-08-19T02:13:35;19.80;;;16.00;;
63943;SDS011;50121;51.218;7.664;2022-08-19T02:16:03;22.40;;;16.10;;
63943;SDS011;50121;51.218;7.664;2022-08-19T02:18:30;20.17;;;15.90;;
63943;SDS011;50121;51.218;7.664;2022-08-19T02:21:00;19.73;;;15.15;;
63943;SDS011;50121;51.218;7.664;2022-08-19T02:23:27;18.35;;;15.65;;
63943;SDS011;50121;51.218;7.664;2022-08-19T02:25:55;20.90;;;16.30;;
63943;SDS011;50121;51.218;7.664;2022-08-19T02:28:22;19.60;;;15.73;;
63943;SDS011;50121;51.218;7.664;2022-08-19T02:30:50;21.15;;;16.95;;
63943;SDS011;50121;51.218;7.664;2022-08-19T02:33:17;21.95;;;16.17;;
63943;SDS011;50121;51.218;7.664;2022-08-19T02:35:46;20.67;;;15.48;;
63943;SDS011;50121;51.218;7.664;2022-08-19T02:38:23;17.50;;;15.57;;
63943;SDS011;50121;51.218;7.664;2022-08-19T02:41:00;20.48;;;15.00;;
63943;SDS011;50121;51.218;7.664;2022-08-19T02:43:29;17.73;;;14.27;;
63943;SDS011;50121;51.218;7.664;2022-08-19T02:45:57;19.60;;;15.13;;
63943;SDS011;50121;51.218;7.664;2022-08-19T02:48:25;17.73;;;14.23;;
63943;SDS011;50121;51.218;7.664;2022-08-19T02:51:01;18.35;;;14.88;;
63943;SDS011;50121;51.218;7.664;2022-08-19T02:53:29;17.65;;;14.68;;
63943;SDS011;50121;51.218;7.664;2022-08-19T02:55:57;16.92;;;14.52;;
63943;SDS011;50121;51.218;7.664;2022-08-19T02:58:24;19.90;;;15.07;;
63943;SDS011;50121;51.218;7.664;2022-08-19T03:00:54;19.80;;;14.75;;
63943;SDS011;50121;51.218;7.664;2022-08-19T03:03:22;18.48;;;15.48;;
63943;SDS011;50121;51.218;7.664;2022-08-19T03:05:50;20.30;;;15.90;;
63943;SDS011;50121;51.218;7.664;2022-08-19T03:08:17;19.88;;;16.02;;
63943;SDS011;50121;51.218;7.664;2022-08-19T03:10:45;17.42;;;15.50;;
63943;SDS011;50121;51.218;7.664;2022-08-19T03:13:14;20.45;;;15.15;;
63943;SDS011;50121;51.218;7.664;2022-08-19T03:15:42;23.02;;;15.73;;
63943;SDS011;50121;51.218;7.664;2022-08-19T03:18:11;19.67;;;16.65;;
63943;SDS011;50121;51.218;7.664;2022-08-19T03:20:43;19.38;;;16.27;;
63943;SDS011;50121;51.218;7.664;2022-08-19T03:23:11;23.35;;;17.88;;
63943;SDS011;50121;51.218;7.664;2022-08-19T03:25:42;23.00;;;17.52;;
63943;SDS011;50121;51.218;7.664;2022-08-19T03:28:11;21.63;;;16.88;;
63943;SDS011;50121;51.218;7.664;2022-08-19T03:30:39;24.65;;;17.40;;
63943;SDS011;50121;51.218;7.664;2022-08-19T03:33:10;21.48;;;16.83;;
63943;SDS011;50121;51.218;7.664;2022-08-19T03:35:38;22.42;;;16.67;;
63943;SDS011;50121;51.218;7.664;2022-08-19T03:38:08;22.95;;;18.55;;
63943;SDS011;50121;51.218;7.664;2022-08-19T03:40:36;23.35;;;17.30;;
63943;SDS011;50121;51.218;7.664;2022-08-19T03:43:04;21.05;;;16.33;;
63943;SDS011;50121;51.218;7.664;2022-08-19T03:45:32;23.05;;;17.50;;
63943;SDS011;50121;51.218;7.664;2022-08-19T03:48:00;20.88;;;16.25;;
63943;SDS011;50121;51.218;7.664;2022-08-19T03:50:27;19.35;;;16.45;;
63943;SDS011;50121;51.218;7.664;2022-08-19T03:52:55;21.45;;;16.65;;
63943;SDS011;50121;51.218;7.664;2022-08-19T03:55:22;19.02;;;15.75;;
63943;SDS011;50121;51.218;7.664;2022-08-19T03:57:50;22.27;;;17.30;;
63943;SDS011;50121;51.218;7.664;2022-08-19T04:00:19;24.98;;;17.65;;
63943;SDS011;50121;51.218;7.664;2022-08-19T04:02:47;22.20;;;18.27;;
63943;SDS011;50121;51.218;7.664;2022-08-19T04:05:14;24.58;;;19.73;;
63943;SDS011;50121;51.218;7.664;2022-08-19T04:07:42;24.42;;;19.08;;
63943;SDS011;50121;51.218;7.664;2022-08-19T04:10:10;24.73;;;18.80;;
63943;SDS011;50121;51.218;7.664;2022-08-19T04:12:37;21.77;;;18.20;;
63943;SDS011;50121;51.218;7.664;2022-08-19T04:15:06;25.25;;;17.58;;
63943;SDS011;50121;51.218;7.664;2022-08-19T04:17:35;25.20;;;17.98;;
63943;SDS011;50121;51.218;7.664;2022-08-19T04:20:03;24.77;;;17.75;;
63943;SDS011;50121;51.218;7.664;2022-08-19T04:22:31;20.83;;;17.40;;
63943;SDS011;50121;51.218;7.664;2022-08-19T04:24:59;23.08;;;17.00;;
63943;SDS011;50121;51.218;7.664;2022-08-19T04:27:26;21.25;;;16.70;;
63943;SDS011;50121;51.218;7.664;2022-08-19T04:29:54;20.45;;;16.17;;
63943;SDS011;50121;51.218;7.664;2022-08-19T04:32:22;21.20;;;16.20;;
63943;SDS011;50121;51.218;7.664;2022-08-19T04:34:50;18.90;;;15.30;;
63943;SDS011;50121;51.218;7.664;2022-08-19T04:37:22;19.95;;;15.30;;
63943;SDS011;50121;51.218;7.664;2022-08-19T04:39:51;18.75;;;14.95;;
63943;SDS011;50121;51.218;7.664;2022-08-19T04:42:39;21.08;;;16.15;;
63943;SDS011;50121;51.218;7.664;2022-08-19T04:45:08;25.08;;;16.10;;
63943;SDS011;50121;51.218;7.664;2022-08-19T04:47:37;20.02;;;16.65;;
63943;SDS011;50121;51.218;7.664;2022-08-19T04:50:06;19.13;;;16.08;;
63943;SDS011;50121;51.218;7.664;2022-08-19T04:52:34;18.58;;;15.48;;
63943;SDS011;50121;51.218;7.664;2022-08-19T04:55:02;19.58;;;15.75;;
63943;SDS011;50121;51.218;7.664;2022-08-19T04:57:32;17.42;;;14.00;;
63943;SDS011;50121;51.218;7.664;2022-08-19T05:00:00;17.10;;;14.07;;
63943;SDS011;50121;51.218;7.664;2022-08-19T05:02:28;19.50;;;14.32;;
63943;SDS011;50121;51.218;7.664;2022-08-19T05:04:56;20.52;;;15.05;;
63943;SDS011;50121;51.218;7.664;2022-08-19T05:07:27;17.08;;;14.82;;
63943;SDS011;50121;51.218;7.664;2022-08-19T05:09:55;21.50;;;15.32;;
63943;SDS011;50121;51.218;7.664;2022-08-19T05:12:22;16.92;;;14.00;;
63943;SDS011;50121;51.218;7.664;2022-08-19T05:14:51;18.63;;;15.05;;
63943;SDS011;50121;51.218;7.664;2022-08-19T05:17:18;18.00;;;15.15;;
63943;SDS011;50121;51.218;7.664;2022-08-19T05:19:54;18.77;;;15.02;;
63943;SDS011;50121;51.218;7.664;2022-08-19T05:22:41;19.20;;;14.98;;
63943;SDS011;50121;51.218;7.664;2022-08-19T05:25:11;19.33;;;15.48;;
63943;SDS011;50121;51.218;7.664;2022-08-19T05:27:40;19.55;;;14.75;;
63943;SDS011;50121;51.218;7.664;2022-08-19T05:30:09;18.75;;;15.45;;
63943;SDS011;50121;51.218;7.664;2022-08-19T05:32:37;20.90;;;15.68;;
63943;SDS011;50121;51.218;7.664;2022-08-19T05:35:05;19.50;;;15.95;;
63943;SDS011;50121;51.218;7.664;2022-08-19T05:37:32;20.77;;;15.80;;
63943;SDS011;50121;51.218;7.664;2022-08-19T05:40:00;21.10;;;15.93;;
63943;SDS011;50121;51.218;7.664;2022-08-19T05:42:28;20.50;;;15.88;;
63943;SDS011;50121;51.218;7.664;2022-08-19T05:44:57;31.55;;;23.42;;
63943;SDS011;50121;51.218;7.664;2022-08-19T05:47:24;38.42;;;30.08;;
63943;SDS011;50121;51.218;7.664;2022-08-19T05:49:52;24.30;;;18.40;;
63943;SDS011;50121;51.218;7.664;2022-08-19T05:52:19;21.52;;;17.15;;
63943;SDS011;50121;51.218;7.664;2022-08-19T05:54:47;21.10;;;16.27;;
63943;SDS011;50121;51.218;7.664;2022-08-19T05:57:20;19.23;;;15.73;;
63943;SDS011;50121;51.218;7.664;2022-08-19T05:59:48;19.15;;;16.35;;
63943;SDS011;50121;51.218;7.664;2022-08-19T06:02:17;20.80;;;16.35;;
63943;SDS011;50121;51.218;7.664;2022-08-19T06:04:45;18.52;;;16.45;;
63943;SDS011;50121;51.218;7.664;2022-08-19T06:07:13;20.58;;;15.90;;
63943;SDS011;50121;51.218;7.664;2022-08-19T06:09:41;17.15;;;15.35;;
63943;SDS011;50121;51.218;7.664;2022-08-19T06:12:09;19.65;;;15.85;;
63943;SDS011;50121;51.218;7.664;2022-08-19T06:14:37;18.75;;;14.95;;
63943;SDS011;50121;51.218;7.664;2022-08-19T06:17:05;17.40;;;14.85;;
63943;SDS011;50121;51.218;7.664;2022-08-19T06:19:32;18.98;;;15.35;;
63943;SDS011;50121;51.218;7.664;2022-08-19T06:22:00;19.50;;;16.65;;
63943;SDS011;50121;51.218;7.664;2022-08-19T06:24:28;17.77;;;14.30;;
63943;SDS011;50121;51.218;7.664;2022-08-19T06:26:56;17.92;;;14.20;;
63943;SDS011;50121;51.218;7.664;2022-08-19T06:29:26;18.67;;;16.48;;
63943;SDS011;50121;51.218;7.664;2022-08-19T06:31:55;19.83;;;14.10;;
63943;SDS011;50121;51.218;7.664;2022-08-19T06:34:23;18.02;;;15.15;;
63943;SDS011;50121;51.218;7.664;2022-08-19T06:36:51;21.00;;;14.50;;
63943;SDS011;50121;51.218;7.664;2022-08-19T06:39:21;17.02;;;13.75;;
63943;SDS011;50121;51.218;7.664;2022-08-19T06:41:49;18.65;;;14.40;;
63943;SDS011;50121;51.218;7.664;2022-08-19T06:44:19;17.45;;;15.65;;
63943;SDS011;50121;51.218;7.664;2022-08-19T06:46:47;17.83;;;15.82;;
63943;SDS011;50121;51.218;7.664;2022-08-19T06:49:18;18.02;;;14.68;;
63943;SDS011;50121;51.218;7.664;2022-08-19T06:51:46;18.02;;;14.70;;
63943;SDS011;50121;51.218;7.664;2022-08-19T06:54:14;17.52;;;15.13;;
63943;SDS011;50121;51.218;7.664;2022-08-19T06:56:42;16.30;;;13.95;;
63943;SDS011;50121;51.218;7.664;2022-08-19T06:59:13;16.52;;;14.80;;
63943;SDS011;50121;51.218;7.664;2022-08-19T07:04:33;17.02;;;14.75;;
63943;SDS011;50121;51.218;7.664;2022-08-19T07:07:12;20.20;;;15.40;;
63943;SDS011;50121;51.218;7.664;2022-08-19T07:09:40;17.23;;;15.32;;
63943;SDS011;50121;51.218;7.664;2022-08-19T07:12:09;15.90;;;14.25;;
63943;SDS011;50121;51.218;7.664;2022-08-19T07:14:38;22.50;;;17.08;;
63943;SDS011;50121;51.218;7.664;2022-08-19T07:17:07;19.17;;;16.13;;
63943;SDS011;50121;51.218;7.664;2022-08-19T07:19:36;21.33;;;16.92;;
63943;SDS011;50121;51.218;7.664;2022-08-19T07:22:04;19.17;;;15.93;;
63943;SDS011;50121;51.218;7.664;2022-08-19T07:24:32;23.92;;;17.52;;
63943;SDS011;50121;51.218;7.664;2022-08-19T07:27:01;23.25;;;18.02;;
63943;SDS011;50121;51.218;7.664;2022-08-19T07:29:29;20.95;;;17.13;;
63943;SDS011;50121;51.218;7.664;2022-08-19T07:32:00;24.42;;;18.45;;
63943;SDS011;50121;51.218;7.664;2022-08-19T07:34:28;25.33;;;18.58;;
63943;SDS011;50121;51.218;7.664;2022-08-19T07:36:56;27.80;;;17.73;;
63943;SDS011;50121;51.218;7.664;2022-08-19T07:39:26;26.42;;;17.75;;
63943;SDS011;50121;51.218;7.664;2022-08-19T07:41:54;28.10;;;17.95;;
63943;SDS011;50121;51.218;7.664;2022-08-19T07:44:22;24.95;;;18.65;;
63943;SDS011;50121;51.218;7.664;2022-08-19T07:46:52;26.45;;;18.08;;
63943;SDS011;50121;51.218;7.664;2022-08-19T07:49:22;23.45;;;16.98;;
63943;SDS011;50121;51.218;7.664;2022-08-19T07:51:55;21.73;;;18.70;;
63943;SDS011;50121;51.218;7.664;2022-08-19T07:54:24;27.45;;;18.33;;
63943;SDS011;50121;51.218;7.664;2022-08-19T07:56:52;21.90;;;16.63;;
63943;SDS011;50121;51.218;7.664;2022-08-19T07:59:20;20.95;;;16.80;;
63943;SDS011;50121;51.218;7.664;2022-08-19T08:01:48;18.60;;;16.65;;
63943;SDS011;50121;51.218;7.664;2022-08-19T08:04:17;19.58;;;16.40;;
63943;SDS011;50121;51.218;7.664;2022-08-19T08:07:04;21.40;;;16.75;;
63943;SDS011;50121;51.218;7.664;2022-08-19T08:09:51;19.55;;;15.80;;
63943;SDS011;50121;51.218;7.664;2022-08-19T08:12:21;23.80;;;18.80;;
63943;SDS011;50121;51.218;7.664;2022-08-19T08:14:59;23.77;;;17.98;;
63943;SDS011;50121;51.218;7.664;2022-08-19T08:17:31;18.02;;;15.70;;
63943;SDS011;50121;51.218;7.664;2022-08-19T08:19:59;19.98;;;16.85;;
63943;SDS011;50121;51.218;7.664;2022-08-19T08:22:27;18.23;;;16.27;;
63943;SDS011;50121;51.218;7.664;2022-08-19T08:25:15;17.48;;;14.98;;
63943;SDS011;50121;51.218;7.664;2022-08-19T08:27:43;18.55;;;16.60;;
63943;SDS011;50121;51.218;7.664;2022-08-19T08:30:27;18.55;;;16.75;;
63943;SDS011;50121;51.218;7.664;2022-08-19T08:32:55;17.85;;;16.17;;
63943;SDS011;50121;51.218;7.664;2022-08-19T08:35:23;20.15;;;17.98;;
63943;SDS011;50121;51.218;7.664;2022-08-19T08:37:52;18.05;;;16.13;;
63943;SDS011;50121;51.218;7.664;2022-08-19T08:43:06;17.15;;;15.40;;
63943;SDS011;50121;51.218;7.664;2022-08-19T08:45:35;16.52;;;14.93;;
63943;SDS011;50121;51.218;7.664;2022-08-19T08:48:16;16.38;;;14.77;;
63943;SDS011;50121;51.218;7.664;2022-08-19T08:50:45;15.07;;;13.68;;
63943;SDS011;50121;51.218;7.664;2022-08-19T08:53:16;16.00;;;14.48;;
63943;SDS011;50121;51.218;7.664;2022-08-19T08:55:44;16.55;;;14.98;;
63943;SDS011;50121;51.218;7.664;2022-08-19T08:58:13;16.80;;;15.00;;
63943;SDS011;50121;51.218;7.664;2022-08-19T09:00:44;31.55;;;23.13;;
63943;SDS011;50121;51.218;7.664;2022-08-19T09:03:22;17.67;;;15.88;;
63943;SDS011;50121;51.218;7.664;2022-08-19T09:06:04;15.60;;;14.07;;
63943;SDS011;50121;51.218;7.664;2022-08-19T09:08:43;20.23;;;16.95;;
63943;SDS011;50121;51.218;7.664;2022-08-19T09:11:15;16.73;;;15.00;;
63943;SDS011;50121;51.218;7.664;2022-08-19T09:16:18;18.85;;;14.38;;
63943;SDS011;50121;51.218;7.664;2022-08-19T09:18:48;15.75;;;14.15;;
63943;SDS011;50121;51.218;7.664;2022-08-19T09:21:19;16.08;;;14.60;;
63943;SDS011;50121;51.218;7.664;2022-08-19T09:23:51;15.60;;;14.20;;
63943;SDS011;50121;51.218;7.664;2022-08-19T09:26:20;17.05;;;14.18;;
63943;SDS011;50121;51.218;7.664;2022-08-19T09:28:48;14.23;;;12.77;;
63943;SDS011;50121;51.218;7.664;2022-08-19T09:31:17;13.43;;;12.18;;
63943;SDS011;50121;51.218;7.664;2022-08-19T09:33:46;14.65;;;13.15;;
63943;SDS011;50121;51.218;7.664;2022-08-19T09:36:14;13.05;;;11.75;;
63943;SDS011;50121;51.218;7.664;2022-08-19T09:38:42;14.80;;;12.90;;
63943;SDS011;50121;51.218;7.664;2022-08-19T09:41:12;12.85;;;11.65;;
63943;SDS011;50121;51.218;7.664;2022-08-19T09:43:40;15.45;;;13.98;;
63943;SDS011;50121;51.218;7.664;2022-08-19T09:46:09;14.98;;;13.40;;
63943;SDS011;50121;51.218;7.664;2022-08-19T09:48:37;14.40;;;13.05;;
63943;SDS011;50121;51.218;7.664;2022-08-19T09:51:06;14.02;;;12.80;;
63943;SDS011;50121;51.218;7.664;2022-08-19T09:53:35;12.52;;;11.35;;
63943;SDS011;50121;51.218;7.664;2022-08-19T09:56:03;14.10;;;13.00;;
63943;SDS011;50121;51.218;7.664;2022-08-19T09:58:32;12.88;;;11.68;;
63943;SDS011;50121;51.218;7.664;2022-08-19T10:01:00;12.77;;;11.57;;
63943;SDS011;50121;51.218;7.664;2022-08-19T10:03:29;14.40;;;13.15;;
63943;SDS011;50121;51.218;7.664;2022-08-19T10:05:58;13.68;;;12.57;;
63943;SDS011;50121;51.218;7.664;2022-08-19T10:08:28;13.82;;;12.63;;
63943;SDS011;50121;51.218;7.664;2022-08-19T10:10:57;15.35;;;13.93;;
63943;SDS011;50121;51.218;7.664;2022-08-19T10:13:25;15.05;;;13.65;;
63943;SDS011;50121;51.218;7.664;2022-08-19T10:15:54;16.02;;;14.55;;
63943;SDS011;50121;51.218;7.664;2022-08-19T10:18:23;14.43;;;13.23;;
63943;SDS011;50121;51.218;7.664;2022-08-19T10:20:51;12.90;;;11.70;;
63943;SDS011;50121;51.218;7.664;2022-08-19T10:23:20;15.25;;;13.98;;
63943;SDS011;50121;51.218;7.664;2022-08-19T10:25:48;14.50;;;13.05;;
63943;SDS011;50121;51.218;7.664;2022-08-19T10:28:16;14.63;;;13.35;;
63943;SDS011;50121;51.218;7.664;2022-08-19T10:30:43;14.70;;;13.50;;
63943;SDS011;50121;51.218;7.664;2022-08-19T10:33:11;15.93;;;14.63;;
63943;SDS011;50121;51.218;7.664;2022-08-19T10:35:39;15.00;;;13.77;;
63943;SDS011;50121;51.218;7.664;2022-08-19T10:38:06;15.35;;;14.05;;
63943;SDS011;50121;51.218;7.664;2022-08-19T10:40:34;16.65;;;15.15;;
63943;SDS011;50121;51.218;7.664;2022-08-19T10:43:01;15.98;;;14.52;;
63943;SDS011;50121;51.218;7.664;2022-08-19T10:45:29;18.60;;;17.00;;
63943;SDS011;50121;51.218;7.664;2022-08-19T10:47:57;16.75;;;15.35;;
63943;SDS011;50121;51.218;7.664;2022-08-19T10:50:24;18.10;;;16.45;;
63943;SDS011;50121;51.218;7.664;2022-08-19T10:53:11;17.45;;;15.95;;
63943;SDS011;50121;51.218;7.664;2022-08-19T10:55:38;18.58;;;16.90;;
63943;SDS011;50121;51.218;7.664;2022-08-19T10:58:25;15.57;;;14.27;;
63943;SDS011;50121;51.218;7.664;2022-08-19T11:00:53;15.05;;;13.65;;
63943;SDS011;50121;51.218;7.664;2022-08-19T11:03:22;14.32;;;13.02;;
63943;SDS011;50121;51.218;7.664;2022-08-19T11:06:03;16.33;;;14.75;;
63943;SDS011;50121;51.218;7.664;2022-08-19T11:08:32;15.50;;;14.10;;
63943;SDS011;50121;51.218;7.664;2022-08-19T11:11:01;18.35;;;16.65;;
63943;SDS011;50121;51.218;7.664;2022-08-19T11:14:05;21.55;;;15.40;;
63943;SDS011;50121;51.218;7.664;2022-08-19T11:16:34;17.10;;;15.57;;
63943;SDS011;50121;51.218;7.664;2022-08-19T11:19:01;16.63;;;15.00;;
63943;SDS011;50121;51.218;7.664;2022-08-19T11:21:30;18.13;;;16.42;;
63943;SDS011;50121;51.218;7.664;2022-08-19T11:24:00;17.27;;;15.57;;
63943;SDS011;50121;51.218;7.664;2022-08-19T11:26:29;18.83;;;17.23;;
63943;SDS011;50121;51.218;7.664;2022-08-19T11:28:57;20.85;;;19.02;;
63943;SDS011;50121;51.218;7.664;2022-08-19T11:31:26;22.25;;;19.95;;
63943;SDS011;50121;51.218;7.664;2022-08-19T11:33:55;19.83;;;17.90;;
63943;SDS011;50121;51.218;7.664;2022-08-19T11:36:23;18.70;;;17.02;;
63943;SDS011;50121;51.218;7.664;2022-08-19T11:38:51;18.70;;;16.90;;
63943;SDS011;50121;51.218;7.664;2022-08-19T11:41:19;20.88;;;18.77;;
63943;SDS011;50121;51.218;7.664;2022-08-19T11:43:48;19.95;;;17.65;;
63943;SDS011;50121;51.218;7.664;2022-08-19T11:46:16;18.90;;;17.10;;
63943;SDS011;50121;51.218;7.664;2022-08-19T11:48:44;16.75;;;15.20;;
63943;SDS011;50121;51.218;7.664;2022-08-19T11:51:13;18.05;;;16.38;;
63943;SDS011;50121;51.218;7.664;2022-08-19T11:53:41;16.92;;;15.48;;
63943;SDS011;50121;51.218;7.664;2022-08-19T11:56:09;19.85;;;18.02;;
63943;SDS011;50121;51.218;7.664;2022-08-19T11:58:37;18.95;;;17.10;;
63943;SDS011;50121;51.218;7.664;2022-08-19T12:01:06;18.80;;;17.10;;
63943;SDS011;50121;51.218;7.664;2022-08-19T12:03:34;17.98;;;16.42;;
63943;SDS011;50121;51.218;7.664;2022-08-19T12:06:05;16.90;;;15.43;;
63943;SDS011;50121;51.218;7.664;2022-08-19T12:09:04;16.42;;;15.07;;
63943;SDS011;50121;51.218;7.664;2022-08-19T12:11:32;18.02;;;16.15;;
63943;SDS011;50121;51.218;7.664;2022-08-19T12:14:00;17.73;;;16.23;;
63943;SDS011;50121;51.218;7.664;2022-08-19T12:16:28;19.13;;;17.23;;
63943;SDS011;50121;51.218;7.664;2022-08-19T12:18:57;18.83;;;17.15;;
63943;SDS011;50121;51.218;7.664;2022-08-19T12:21:30;17.75;;;15.35;;
63943;SDS011;50121;51.218;7.664;2022-08-19T12:23:58;16.20;;;14.80;;
63943;SDS011;50121;51.218;7.664;2022-08-19T12:26:27;17.42;;;15.75;;
63943;SDS011;50121;51.218;7.664;2022-08-19T12:28:55;17.33;;;15.82;;
63943;SDS011;50121;51.218;7.664;2022-08-19T12:31:26;16.00;;;14.55;;
63943;SDS011;50121;51.218;7.664;2022-08-19T12:34:03;15.70;;;14.50;;
63943;SDS011;50121;51.218;7.664;2022-08-19T12:36:31;18.95;;;17.55;;
63943;SDS011;50121;51.218;7.664;2022-08-19T12:38:59;16.60;;;15.05;;
63943;SDS011;50121;51.218;7.664;2022-08-19T12:41:26;14.93;;;13.73;;
63943;SDS011;50121;51.218;7.664;2022-08-19T12:43:54;17.23;;;15.73;;
63943;SDS011;50121;51.218;7.664;2022-08-19T12:46:22;15.68;;;14.18;;
63943;SDS011;50121;51.218;7.664;2022-08-19T12:48:49;15.88;;;14.52;;
63943;SDS011;50121;51.218;7.664;2022-08-19T12:51:18;17.70;;;16.13;;
63943;SDS011;50121;51.218;7.664;2022-08-19T12:53:47;16.80;;;15.27;;
63943;SDS011;50121;51.218;7.664;2022-08-19T12:56:25;15.65;;;14.23;;
63943;SDS011;50121;51.218;7.664;2022-08-19T12:58:52;16.10;;;14.60;;
63943;SDS011;50121;51.218;7.664;2022-08-19T13:01:20;15.63;;;14.30;;
63943;SDS011;50121;51.218;7.664;2022-08-19T13:03:49;16.30;;;14.75;;
63943;SDS011;50121;51.218;7.664;2022-08-19T13:06:19;18.20;;;16.52;;
63943;SDS011;50121;51.218;7.664;2022-08-19T13:08:47;17.00;;;15.48;;
63943;SDS011;50121;51.218;7.664;2022-08-19T13:11:15;17.60;;;16.20;;
63943;SDS011;50121;51.218;7.664;2022-08-19T13:13:45;16.98;;;15.48;;
63943;SDS011;50121;51.218;7.664;2022-08-19T13:18:56;15.25;;;13.98;;
63943;SDS011;50121;51.218;7.664;2022-08-19T13:21:24;14.35;;;13.18;;
63943;SDS011;50121;51.218;7.664;2022-08-19T13:23:54;14.27;;;13.18;;
63943;SDS011;50121;51.218;7.664;2022-08-19T13:26:22;14.77;;;13.73;;
63943;SDS011;50121;51.218;7.664;2022-08-19T13:28:49;14.20;;;13.20;;
63943;SDS011;50121;51.218;7.664;2022-08-19T13:31:36;13.10;;;12.13;;
63943;SDS011;50121;51.218;7.664;2022-08-19T13:34:28;14.80;;;13.60;;
63943;SDS011;50121;51.218;7.664;2022-08-19T13:36:56;17.52;;;15.35;;
63943;SDS011;50121;51.218;7.664;2022-08-19T13:39:24;16.73;;;15.18;;
63943;SDS011;50121;51.218;7.664;2022-08-19T13:41:52;16.92;;;15.50;;
63943;SDS011;50121;51.218;7.664;2022-08-19T13:44:20;18.23;;;16.42;;
63943;SDS011;50121;51.218;7.664;2022-08-19T13:46:48;18.48;;;16.73;;
63943;SDS011;50121;51.218;7.664;2022-08-19T13:49:17;18.20;;;16.60;;
63943;SDS011;50121;51.218;7.664;2022-08-19T13:51:45;18.08;;;16.15;;
63943;SDS011;50121;51.218;7.664;2022-08-19T13:54:13;18.33;;;16.65;;
63943;SDS011;50121;51.218;7.664;2022-08-19T13:56:42;17.52;;;15.88;;
63943;SDS011;50121;51.218;7.664;2022-08-19T13:59:10;17.55;;;15.95;;
63943;SDS011;50121;51.218;7.664;2022-08-19T14:01:37;17.15;;;15.63;;
63943;SDS011;50121;51.218;7.664;2022-08-19T14:04:31;16.83;;;15.63;;
63943;SDS011;50121;51.218;7.664;2022-08-19T14:06:59;15.38;;;14.23;;
63943;SDS011;50121;51.218;7.664;2022-08-19T14:09:28;16.65;;;14.63;;
63943;SDS011;50121;51.218;7.664;2022-08-19T14:11:56;16.88;;;15.25;;
63943;SDS011;50121;51.218;7.664;2022-08-19T14:14:24;16.38;;;14.77;;
63943;SDS011;50121;51.218;7.664;2022-08-19T14:16:51;15.20;;;13.90;;
63943;SDS011;50121;51.218;7.664;2022-08-19T14:19:19;15.82;;;14.23;;
63943;SDS011;50121;51.218;7.664;2022-08-19T14:21:46;14.43;;;13.23;;
63943;SDS011;50121;51.218;7.664;2022-08-19T14:24:14;15.40;;;14.07;;
63943;SDS011;50121;51.218;7.664;2022-08-19T14:26:42;15.88;;;14.50;;
63943;SDS011;50121;51.218;7.664;2022-08-19T14:29:09;18.45;;;14.43;;
63943;SDS011;50121;51.218;7.664;2022-08-19T14:31:37;16.50;;;15.30;;
63943;SDS011;50121;51.218;7.664;2022-08-19T14:34:06;16.42;;;15.13;;
63943;SDS011;50121;51.218;7.664;2022-08-19T14:36:33;23.02;;;21.25;;
63943;SDS011;50121;51.218;7.664;2022-08-19T14:39:04;15.43;;;14.27;;
63943;SDS011;50121;51.218;7.664;2022-08-19T14:41:31;13.55;;;12.45;;
63943;SDS011;50121;51.218;7.664;2022-08-19T14:43:59;13.00;;;12.05;;
63943;SDS011;50121;51.218;7.664;2022-08-19T14:46:28;12.32;;;11.35;;